sensor_id;sensor_type;location;lat;lon;timestamp;P1;durP1;ratioP1;P2;durP2;ratioP2
73276;SDS011;61501;43.316;5.372;2023-05-15T00:00:41;2.33;;;2.00;;
73276;SDS011;61501;43.316;5.372;2023-05-15T00:03:08;1.90;;;1.70;;
73276;SDS011;61501;43.316;5.372;2023-05-15T00:05:35;1.95;;;1.67;;
73276;SDS011;61501;43.316;5.372;2023-05-15T00:08:00;3.42;;;1.95;;
73276;SDS011;61501;43.316;5.372;2023-05-15T00:10:26;2.97;;;1.80;;
73276;SDS011;61501;43.316;5.372;2023-05-15T00:12:51;1.98;;;1.77;;
73276;SDS011;61501;43.316;5.372;2023-05-15T00:15:17;3.30;;;2.13;;
73276;SDS011;61501;43.316;5.372;2023-05-15T00:17:43;2.13;;;1.70;;
73276;SDS011;61501;43.316;5.372;2023-05-15T00:20:08;2.15;;;1.90;;
73276;SDS011;61501;43.316;5.372;2023-05-15T00:22:35;3.65;;;1.92;;
73276;SDS011;61501;43.316;5.372;2023-05-15T00:25:00;3.17;;;1.90;;
73276;SDS011;61501;43.316;5.372;2023-05-15T00:27:26;3.13;;;2.25;;
73276;SDS011;61501;43.316;5.372;2023-05-15T00:29:52;2.42;;;2.22;;
73276;SDS011;61501;43.316;5.372;2023-05-15T00:32:17;2.53;;;1.90;;
73276;SDS011;61501;43.316;5.372;2023-05-15T00:34:43;2.72;;;2.10;;
73276;SDS011;61501;43.316;5.372;2023-05-15T00:37:08;3.17;;;2.10;;
73276;SDS011;61501;43.316;5.372;2023-05-15T00:39:35;2.22;;;2.00;;
73276;SDS011;61501;43.316;5.372;2023-05-15T00:42:01;2.42;;;1.90;;
73276;SDS011;61501;43.316;5.372;2023-05-15T00:44:29;2.47;;;2.17;;
73276;SDS011;61501;43.316;5.372;2023-05-15T00:46:56;2.40;;;2.13;;
73276;SDS011;61501;43.316;5.372;2023-05-15T00:49:23;2.47;;;2.00;;
73276;SDS011;61501;43.316;5.372;2023-05-15T00:51:51;2.70;;;2.00;;
73276;SDS011;61501;43.316;5.372;2023-05-15T00:54:17;2.53;;;2.30;;
73276;SDS011;61501;43.316;5.372;2023-05-15T00:56:43;2.72;;;2.40;;
73276;SDS011;61501;43.316;5.372;2023-05-15T00:59:10;2.75;;;2.15;;
73276;SDS011;61501;43.316;5.372;2023-05-15T01:01:37;3.00;;;1.95;;
73276;SDS011;61501;43.316;5.372;2023-05-15T01:04:03;2.75;;;2.40;;
73276;SDS011;61501;43.316;5.372;2023-05-15T01:06:29;2.83;;;2.30;;
73276;SDS011;61501;43.316;5.372;2023-05-15T01:08:56;2.50;;;2.13;;
73276;SDS011;61501;43.316;5.372;2023-05-15T01:11:26;2.47;;;2.03;;
73276;SDS011;61501;43.316;5.372;2023-05-15T01:14:00;3.92;;;2.20;;
73276;SDS011;61501;43.316;5.372;2023-05-15T01:16:28;3.63;;;2.67;;
73276;SDS011;61501;43.316;5.372;2023-05-15T01:18:54;2.67;;;2.30;;
73276;SDS011;61501;43.316;5.372;2023-05-15T01:21:51;3.53;;;2.20;;
73276;SDS011;61501;43.316;5.372;2023-05-15T01:32:45;2.97;;;2.67;;
73276;SDS011;61501;43.316;5.372;2023-05-15T01:37:47;4.53;;;2.55;;
73276;SDS011;61501;43.316;5.372;2023-05-15T01:40:18;3.72;;;2.60;;
73276;SDS011;61501;43.316;5.372;2023-05-15T01:42:59;2.88;;;2.60;;
73276;SDS011;61501;43.316;5.372;2023-05-15T01:45:30;3.85;;;2.80;;
73276;SDS011;61501;43.316;5.372;2023-05-15T01:47:57;3.65;;;2.80;;
73276;SDS011;61501;43.316;5.372;2023-05-15T01:50:24;4.30;;;2.92;;
73276;SDS011;61501;43.316;5.372;2023-05-15T01:52:53;3.47;;;3.17;;
73276;SDS011;61501;43.316;5.372;2023-05-15T01:55:22;3.30;;;2.90;;
73276;SDS011;61501;43.316;5.372;2023-05-15T01:57:51;3.88;;;3.58;;
73276;SDS011;61501;43.316;5.372;2023-05-15T02:00:17;3.78;;;2.80;;
73276;SDS011;61501;43.316;5.372;2023-05-15T02:02:43;3.05;;;2.38;;
73276;SDS011;61501;43.316;5.372;2023-05-15T02:05:10;3.00;;;2.80;;
73276;SDS011;61501;43.316;5.372;2023-05-15T02:07:37;3.33;;;2.80;;
73276;SDS011;61501;43.316;5.372;2023-05-15T02:10:04;3.65;;;3.20;;
73276;SDS011;61501;43.316;5.372;2023-05-15T02:12:30;5.05;;;3.20;;
73276;SDS011;61501;43.316;5.372;2023-05-15T02:14:56;3.53;;;3.22;;
73276;SDS011;61501;43.316;5.372;2023-05-15T02:17:23;3.92;;;3.42;;
73276;SDS011;61501;43.316;5.372;2023-05-15T02:19:49;3.00;;;2.70;;
73276;SDS011;61501;43.316;5.372;2023-05-15T02:22:15;3.50;;;3.20;;
73276;SDS011;61501;43.316;5.372;2023-05-15T02:24:41;3.17;;;2.88;;
73276;SDS011;61501;43.316;5.372;2023-05-15T02:32:55;4.60;;;3.08;;
73276;SDS011;61501;43.316;5.372;2023-05-15T02:35:38;5.95;;;3.47;;
73276;SDS011;61501;43.316;5.372;2023-05-15T02:38:12;3.15;;;2.85;;
73276;SDS011;61501;43.316;5.372;2023-05-15T02:40:41;4.45;;;3.13;;
73276;SDS011;61501;43.316;5.372;2023-05-15T02:43:09;5.72;;;3.25;;
73276;SDS011;61501;43.316;5.372;2023-05-15T02:45:35;5.45;;;3.45;;
73276;SDS011;61501;43.316;5.372;2023-05-15T02:48:01;3.58;;;3.28;;
73276;SDS011;61501;43.316;5.372;2023-05-15T02:50:28;3.30;;;2.97;;
73276;SDS011;61501;43.316;5.372;2023-05-15T02:53:04;4.05;;;3.40;;
73276;SDS011;61501;43.316;5.372;2023-05-15T02:55:31;4.22;;;3.13;;
73276;SDS011;61501;43.316;5.372;2023-05-15T02:58:01;3.78;;;3.05;;
73276;SDS011;61501;43.316;5.372;2023-05-15T03:00:27;3.45;;;3.15;;
73276;SDS011;61501;43.316;5.372;2023-05-15T03:02:53;4.80;;;3.42;;
73276;SDS011;61501;43.316;5.372;2023-05-15T03:05:19;4.07;;;3.10;;
73276;SDS011;61501;43.316;5.372;2023-05-15T03:07:45;3.85;;;3.35;;
73276;SDS011;61501;43.316;5.372;2023-05-15T03:10:10;3.55;;;3.25;;
73276;SDS011;61501;43.316;5.372;2023-05-15T03:12:37;3.80;;;3.22;;
73276;SDS011;61501;43.316;5.372;2023-05-15T03:15:03;6.82;;;3.42;;
73276;SDS011;61501;43.316;5.372;2023-05-15T03:17:30;3.70;;;3.40;;
73276;SDS011;61501;43.316;5.372;2023-05-15T03:19:55;3.55;;;3.25;;
73276;SDS011;61501;43.316;5.372;2023-05-15T03:22:21;4.15;;;3.08;;
73276;SDS011;61501;43.316;5.372;2023-05-15T03:24:47;3.40;;;3.10;;
73276;SDS011;61501;43.316;5.372;2023-05-15T03:27:13;3.80;;;3.40;;
73276;SDS011;61501;43.316;5.372;2023-05-15T03:29:39;3.55;;;3.25;;
73276;SDS011;61501;43.316;5.372;2023-05-15T03:32:05;3.30;;;3.00;;
73276;SDS011;61501;43.316;5.372;2023-05-15T03:34:30;4.25;;;3.05;;
73276;SDS011;61501;43.316;5.372;2023-05-15T03:36:56;4.55;;;3.58;;
73276;SDS011;61501;43.316;5.372;2023-05-15T03:39:22;4.28;;;2.90;;
73276;SDS011;61501;43.316;5.372;2023-05-15T03:41:47;3.97;;;3.58;;
73276;SDS011;61501;43.316;5.372;2023-05-15T03:44:13;4.38;;;3.25;;
73276;SDS011;61501;43.316;5.372;2023-05-15T03:46:38;4.85;;;3.30;;
73276;SDS011;61501;43.316;5.372;2023-05-15T03:49:04;4.60;;;3.53;;
73276;SDS011;61501;43.316;5.372;2023-05-15T03:51:30;4.75;;;3.63;;
73276;SDS011;61501;43.316;5.372;2023-05-15T03:53:55;4.55;;;3.40;;
73276;SDS011;61501;43.316;5.372;2023-05-15T03:56:21;6.38;;;3.58;;
73276;SDS011;61501;43.316;5.372;2023-05-15T03:58:47;4.95;;;3.15;;
73276;SDS011;61501;43.316;5.372;2023-05-15T04:01:12;3.67;;;3.08;;
73276;SDS011;61501;43.316;5.372;2023-05-15T04:03:38;4.57;;;3.45;;
73276;SDS011;61501;43.316;5.372;2023-05-15T04:06:04;4.57;;;4.00;;
73276;SDS011;61501;43.316;5.372;2023-05-15T04:08:30;3.72;;;3.30;;
73276;SDS011;61501;43.316;5.372;2023-05-15T04:10:55;6.68;;;3.72;;
73276;SDS011;61501;43.316;5.372;2023-05-15T04:13:21;4.38;;;3.50;;
73276;SDS011;61501;43.316;5.372;2023-05-15T04:15:46;3.63;;;3.33;;
73276;SDS011;61501;43.316;5.372;2023-05-15T04:18:12;3.65;;;3.33;;
73276;SDS011;61501;43.316;5.372;2023-05-15T04:20:38;6.03;;;3.47;;
73276;SDS011;61501;43.316;5.372;2023-05-15T04:23:04;3.90;;;3.47;;
73276;SDS011;61501;43.316;5.372;2023-05-15T04:25:29;7.40;;;3.80;;
73276;SDS011;61501;43.316;5.372;2023-05-15T04:27:56;4.75;;;3.60;;
73276;SDS011;61501;43.316;5.372;2023-05-15T04:30:21;4.03;;;3.72;;
73276;SDS011;61501;43.316;5.372;2023-05-15T04:32:47;4.22;;;3.55;;
73276;SDS011;61501;43.316;5.372;2023-05-15T04:35:13;4.35;;;3.42;;
73276;SDS011;61501;43.316;5.372;2023-05-15T04:37:39;4.35;;;3.33;;
73276;SDS011;61501;43.316;5.372;2023-05-15T04:40:06;5.82;;;3.78;;
73276;SDS011;61501;43.316;5.372;2023-05-15T04:42:33;4.90;;;3.75;;
73276;SDS011;61501;43.316;5.372;2023-05-15T04:45:00;3.88;;;3.58;;
73276;SDS011;61501;43.316;5.372;2023-05-15T04:47:26;8.98;;;4.53;;
73276;SDS011;61501;43.316;5.372;2023-05-15T04:49:52;5.93;;;4.18;;
73276;SDS011;61501;43.316;5.372;2023-05-15T04:52:18;5.15;;;4.65;;
73276;SDS011;61501;43.316;5.372;2023-05-15T04:54:43;5.05;;;4.55;;
73276;SDS011;61501;43.316;5.372;2023-05-15T04:57:10;5.05;;;4.63;;
73276;SDS011;61501;43.316;5.372;2023-05-15T04:59:35;6.43;;;5.05;;
73276;SDS011;61501;43.316;5.372;2023-05-15T05:02:01;5.63;;;4.97;;
73276;SDS011;61501;43.316;5.372;2023-05-15T05:04:27;6.88;;;5.07;;
73276;SDS011;61501;43.316;5.372;2023-05-15T05:06:53;6.90;;;5.40;;
73276;SDS011;61501;43.316;5.372;2023-05-15T05:09:18;6.63;;;5.28;;
73276;SDS011;61501;43.316;5.372;2023-05-15T05:11:44;6.68;;;5.30;;
73276;SDS011;61501;43.316;5.372;2023-05-15T05:14:11;6.10;;;5.50;;
73276;SDS011;61501;43.316;5.372;2023-05-15T05:16:38;6.15;;;5.28;;
73276;SDS011;61501;43.316;5.372;2023-05-15T05:19:04;8.05;;;5.32;;
73276;SDS011;61501;43.316;5.372;2023-05-15T05:21:30;6.97;;;5.60;;
73276;SDS011;61501;43.316;5.372;2023-05-15T05:23:57;6.25;;;5.60;;
73276;SDS011;61501;43.316;5.372;2023-05-15T05:26:23;6.38;;;5.40;;
73276;SDS011;61501;43.316;5.372;2023-05-15T05:28:49;5.80;;;5.30;;
73276;SDS011;61501;43.316;5.372;2023-05-15T05:31:15;5.50;;;5.00;;
73276;SDS011;61501;43.316;5.372;2023-05-15T05:33:41;7.57;;;5.80;;
73276;SDS011;61501;43.316;5.372;2023-05-15T05:36:06;6.07;;;5.13;;
73276;SDS011;61501;43.316;5.372;2023-05-15T05:38:32;6.22;;;5.60;;
73276;SDS011;61501;43.316;5.372;2023-05-15T05:40:58;6.40;;;5.78;;
73276;SDS011;61501;43.316;5.372;2023-05-15T05:43:25;8.20;;;5.85;;
73276;SDS011;61501;43.316;5.372;2023-05-15T05:45:51;6.75;;;6.05;;
73276;SDS011;61501;43.316;5.372;2023-05-15T05:48:17;7.43;;;5.75;;
73276;SDS011;61501;43.316;5.372;2023-05-15T05:50:42;9.02;;;6.10;;
73276;SDS011;61501;43.316;5.372;2023-05-15T05:53:08;8.57;;;6.50;;
73276;SDS011;61501;43.316;5.372;2023-05-15T05:55:34;9.70;;;6.20;;
73276;SDS011;61501;43.316;5.372;2023-05-15T05:57:59;6.85;;;6.20;;
73276;SDS011;61501;43.316;5.372;2023-05-15T06:00:25;9.70;;;6.93;;
73276;SDS011;61501;43.316;5.372;2023-05-15T06:02:53;7.95;;;6.65;;
73276;SDS011;61501;43.316;5.372;2023-05-15T06:05:21;6.65;;;6.00;;
73276;SDS011;61501;43.316;5.372;2023-05-15T06:07:50;7.07;;;6.32;;
73276;SDS011;61501;43.316;5.372;2023-05-15T06:12:58;8.40;;;6.20;;
73276;SDS011;61501;43.316;5.372;2023-05-15T06:15:24;7.32;;;6.38;;
73276;SDS011;61501;43.316;5.372;2023-05-15T06:17:50;8.23;;;6.43;;
73276;SDS011;61501;43.316;5.372;2023-05-15T06:20:15;12.30;;;6.05;;
73276;SDS011;61501;43.316;5.372;2023-05-15T06:22:41;6.35;;;5.70;;
73276;SDS011;61501;43.316;5.372;2023-05-15T06:25:07;6.13;;;5.47;;
73276;SDS011;61501;43.316;5.372;2023-05-15T06:27:41;6.22;;;5.63;;
73276;SDS011;61501;43.316;5.372;2023-05-15T06:30:07;7.13;;;5.75;;
73276;SDS011;61501;43.316;5.372;2023-05-15T06:32:33;7.90;;;5.43;;
73276;SDS011;61501;43.316;5.372;2023-05-15T06:34:59;7.25;;;5.30;;
73276;SDS011;61501;43.316;5.372;2023-05-15T06:37:25;7.75;;;5.22;;
73276;SDS011;61501;43.316;5.372;2023-05-15T06:39:52;6.72;;;5.30;;
73276;SDS011;61501;43.316;5.372;2023-05-15T06:42:20;7.00;;;5.05;;
73276;SDS011;61501;43.316;5.372;2023-05-15T06:44:46;8.63;;;5.20;;
73276;SDS011;61501;43.316;5.372;2023-05-15T06:47:11;7.78;;;5.10;;
73276;SDS011;61501;43.316;5.372;2023-05-15T06:49:42;5.60;;;4.78;;
73276;SDS011;61501;43.316;5.372;2023-05-15T06:52:08;6.15;;;4.40;;
73276;SDS011;61501;43.316;5.372;2023-05-15T06:54:34;5.47;;;4.65;;
73276;SDS011;61501;43.316;5.372;2023-05-15T06:57:00;5.43;;;4.45;;
73276;SDS011;61501;43.316;5.372;2023-05-15T06:59:26;11.15;;;5.43;;
73276;SDS011;61501;43.316;5.372;2023-05-15T07:01:52;9.35;;;5.22;;
73276;SDS011;61501;43.316;5.372;2023-05-15T07:04:18;6.05;;;4.32;;
73276;SDS011;61501;43.316;5.372;2023-05-15T07:06:44;9.82;;;4.60;;
73276;SDS011;61501;43.316;5.372;2023-05-15T07:09:09;9.38;;;4.93;;
73276;SDS011;61501;43.316;5.372;2023-05-15T07:11:36;16.88;;;5.85;;
73276;SDS011;61501;43.316;5.372;2023-05-15T07:14:03;5.88;;;4.32;;
73276;SDS011;61501;43.316;5.372;2023-05-15T07:16:30;5.63;;;4.30;;
73276;SDS011;61501;43.316;5.372;2023-05-15T07:18:55;6.18;;;4.50;;
73276;SDS011;61501;43.316;5.372;2023-05-15T07:21:21;10.40;;;4.45;;
73276;SDS011;61501;43.316;5.372;2023-05-15T07:23:46;4.93;;;4.25;;
73276;SDS011;61501;43.316;5.372;2023-05-15T07:26:12;7.10;;;4.22;;
73276;SDS011;61501;43.316;5.372;2023-05-15T07:28:39;7.43;;;4.10;;
73276;SDS011;61501;43.316;5.372;2023-05-15T07:31:05;7.60;;;4.32;;
73276;SDS011;61501;43.316;5.372;2023-05-15T07:33:32;6.55;;;4.35;;
73276;SDS011;61501;43.316;5.372;2023-05-15T07:35:57;4.07;;;3.58;;
73276;SDS011;61501;43.316;5.372;2023-05-15T07:38:23;6.57;;;3.90;;
73276;SDS011;61501;43.316;5.372;2023-05-15T07:40:49;4.95;;;3.60;;
73276;SDS011;61501;43.316;5.372;2023-05-15T07:43:15;7.97;;;3.70;;
73276;SDS011;61501;43.316;5.372;2023-05-15T07:45:40;5.65;;;3.75;;
73276;SDS011;61501;43.316;5.372;2023-05-15T07:48:13;5.78;;;3.20;;
73276;SDS011;61501;43.316;5.372;2023-05-15T07:50:39;6.40;;;4.00;;
73276;SDS011;61501;43.316;5.372;2023-05-15T07:53:04;5.88;;;3.50;;
73276;SDS011;61501;43.316;5.372;2023-05-15T07:55:30;5.50;;;3.40;;
73276;SDS011;61501;43.316;5.372;2023-05-15T07:57:56;5.82;;;3.28;;
73276;SDS011;61501;43.316;5.372;2023-05-15T08:00:22;6.00;;;3.30;;
73276;SDS011;61501;43.316;5.372;2023-05-15T08:02:47;12.10;;;4.65;;
73276;SDS011;61501;43.316;5.372;2023-05-15T08:05:13;6.20;;;3.75;;
73276;SDS011;61501;43.316;5.372;2023-05-15T08:07:39;11.30;;;4.05;;
73276;SDS011;61501;43.316;5.372;2023-05-15T08:10:05;3.80;;;3.33;;
73276;SDS011;61501;43.316;5.372;2023-05-15T08:12:31;10.75;;;4.57;;
73276;SDS011;61501;43.316;5.372;2023-05-15T08:14:57;8.55;;;3.65;;
73276;SDS011;61501;43.316;5.372;2023-05-15T08:17:23;7.38;;;3.38;;
73276;SDS011;61501;43.316;5.372;2023-05-15T08:19:49;7.38;;;3.72;;
73276;SDS011;61501;43.316;5.372;2023-05-15T08:22:15;5.53;;;3.78;;
73276;SDS011;61501;43.316;5.372;2023-05-15T08:24:41;6.38;;;4.10;;
73276;SDS011;61501;43.316;5.372;2023-05-15T08:27:07;7.00;;;4.10;;
73276;SDS011;61501;43.316;5.372;2023-05-15T08:29:36;4.25;;;3.70;;
73276;SDS011;61501;43.316;5.372;2023-05-15T08:32:02;4.85;;;3.88;;
73276;SDS011;61501;43.316;5.372;2023-05-15T08:34:29;7.03;;;3.40;;
73276;SDS011;61501;43.316;5.372;2023-05-15T08:36:55;9.30;;;3.90;;
73276;SDS011;61501;43.316;5.372;2023-05-15T08:39:22;10.50;;;3.65;;
73276;SDS011;61501;43.316;5.372;2023-05-15T08:41:59;5.05;;;3.33;;
73276;SDS011;61501;43.316;5.372;2023-05-15T08:44:38;3.80;;;3.03;;
73276;SDS011;61501;43.316;5.372;2023-05-15T08:47:05;4.78;;;3.30;;
73276;SDS011;61501;43.316;5.372;2023-05-15T08:52:20;3.95;;;3.28;;
73276;SDS011;61501;43.316;5.372;2023-05-15T08:54:46;5.18;;;3.60;;
73276;SDS011;61501;43.316;5.372;2023-05-15T08:57:13;3.45;;;3.05;;
73276;SDS011;61501;43.316;5.372;2023-05-15T08:59:39;3.10;;;2.55;;
73276;SDS011;61501;43.316;5.372;2023-05-15T09:02:05;3.55;;;3.00;;
73276;SDS011;61501;43.316;5.372;2023-05-15T09:04:30;4.45;;;3.10;;
73276;SDS011;61501;43.316;5.372;2023-05-15T09:06:57;6.90;;;3.40;;
73276;SDS011;61501;43.316;5.372;2023-05-15T09:09:24;7.20;;;2.72;;
73276;SDS011;61501;43.316;5.372;2023-05-15T09:11:51;4.88;;;3.05;;
73276;SDS011;61501;43.316;5.372;2023-05-15T09:14:18;4.72;;;3.70;;
73276;SDS011;61501;43.316;5.372;2023-05-15T09:16:43;8.50;;;3.75;;
73276;SDS011;61501;43.316;5.372;2023-05-15T09:19:10;5.05;;;3.63;;
73276;SDS011;61501;43.316;5.372;2023-05-15T09:21:38;4.80;;;3.28;;
73276;SDS011;61501;43.316;5.372;2023-05-15T09:26:38;4.68;;;3.40;;
73276;SDS011;61501;43.316;5.372;2023-05-15T09:29:04;7.75;;;3.30;;
73276;SDS011;61501;43.316;5.372;2023-05-15T09:31:30;11.50;;;4.18;;
73276;SDS011;61501;43.316;5.372;2023-05-15T09:33:59;6.60;;;3.85;;
73276;SDS011;61501;43.316;5.372;2023-05-15T09:36:26;8.70;;;4.53;;
73276;SDS011;61501;43.316;5.372;2023-05-15T09:38:56;5.50;;;3.67;;
73276;SDS011;61501;43.316;5.372;2023-05-15T09:41:23;4.47;;;3.80;;
73276;SDS011;61501;43.316;5.372;2023-05-15T09:43:50;7.40;;;5.15;;
73276;SDS011;61501;43.316;5.372;2023-05-15T09:46:17;5.25;;;3.97;;
73276;SDS011;61501;43.316;5.372;2023-05-15T09:48:42;6.82;;;4.45;;
73276;SDS011;61501;43.316;5.372;2023-05-15T09:51:15;8.05;;;4.10;;
73276;SDS011;61501;43.316;5.372;2023-05-15T09:53:42;5.05;;;4.53;;
73276;SDS011;61501;43.316;5.372;2023-05-15T09:56:15;6.57;;;4.47;;
73276;SDS011;61501;43.316;5.372;2023-05-15T09:58:54;7.25;;;4.60;;
73276;SDS011;61501;43.316;5.372;2023-05-15T10:01:21;9.18;;;4.07;;
73276;SDS011;61501;43.316;5.372;2023-05-15T10:03:57;5.55;;;5.05;;
73276;SDS011;61501;43.316;5.372;2023-05-15T10:06:23;6.70;;;5.40;;
73276;SDS011;61501;43.316;5.372;2023-05-15T10:08:55;8.20;;;5.20;;
73276;SDS011;61501;43.316;5.372;2023-05-15T10:11:21;12.13;;;4.87;;
73276;SDS011;61501;43.316;5.372;2023-05-15T10:13:48;6.57;;;4.50;;
73276;SDS011;61501;43.316;5.372;2023-05-15T10:16:14;5.97;;;5.13;;
73276;SDS011;61501;43.316;5.372;2023-05-15T10:18:40;8.30;;;4.95;;
73276;SDS011;61501;43.316;5.372;2023-05-15T10:21:09;6.47;;;5.55;;
73276;SDS011;61501;43.316;5.372;2023-05-15T10:23:35;7.30;;;4.55;;
73276;SDS011;61501;43.316;5.372;2023-05-15T10:26:39;8.00;;;5.45;;
73276;SDS011;61501;43.316;5.372;2023-05-15T10:29:01;12.05;;;6.93;;
73276;SDS011;61501;43.316;5.372;2023-05-15T10:31:39;5.55;;;5.03;;
73276;SDS011;61501;43.316;5.372;2023-05-15T10:34:05;9.15;;;5.68;;
73276;SDS011;61501;43.316;5.372;2023-05-15T10:36:33;7.40;;;5.22;;
73276;SDS011;61501;43.316;5.372;2023-05-15T10:39:01;8.90;;;5.30;;
73276;SDS011;61501;43.316;5.372;2023-05-15T10:44:03;9.27;;;5.95;;
73276;SDS011;61501;43.316;5.372;2023-05-15T10:46:29;7.80;;;5.28;;
73276;SDS011;61501;43.316;5.372;2023-05-15T10:48:57;9.52;;;5.80;;
73276;SDS011;61501;43.316;5.372;2023-05-15T10:51:28;7.03;;;5.20;;
73276;SDS011;61501;43.316;5.372;2023-05-15T10:53:55;7.80;;;6.07;;
73276;SDS011;61501;43.316;5.372;2023-05-15T10:56:31;6.65;;;5.15;;
73276;SDS011;61501;43.316;5.372;2023-05-15T10:58:59;6.40;;;5.18;;
73276;SDS011;61501;43.316;5.372;2023-05-15T11:01:35;6.57;;;5.32;;
73276;SDS011;61501;43.316;5.372;2023-05-15T11:04:10;8.13;;;5.38;;
73276;SDS011;61501;43.316;5.372;2023-05-15T11:06:37;9.80;;;5.50;;
73276;SDS011;61501;43.316;5.372;2023-05-15T11:14:25;7.63;;;5.22;;
73276;SDS011;61501;43.316;5.372;2023-05-15T11:19:24;10.85;;;5.53;;
73276;SDS011;61501;43.316;5.372;2023-05-15T11:21:56;7.93;;;4.68;;
73276;SDS011;61501;43.316;5.372;2023-05-15T11:24:29;6.82;;;5.65;;
73276;SDS011;61501;43.316;5.372;2023-05-15T11:27:00;6.75;;;6.00;;
73276;SDS011;61501;43.316;5.372;2023-05-15T11:29:29;7.28;;;4.90;;
73276;SDS011;61501;43.316;5.372;2023-05-15T11:31:56;6.57;;;4.97;;
73276;SDS011;61501;43.316;5.372;2023-05-15T11:34:29;6.82;;;5.47;;
73276;SDS011;61501;43.316;5.372;2023-05-15T11:36:58;9.90;;;5.63;;
73276;SDS011;61501;43.316;5.372;2023-05-15T11:39:28;13.45;;;5.45;;
73276;SDS011;61501;43.316;5.372;2023-05-15T11:41:54;8.43;;;4.93;;
73276;SDS011;61501;43.316;5.372;2023-05-15T11:44:23;9.52;;;4.97;;
73276;SDS011;61501;43.316;5.372;2023-05-15T11:46:49;6.78;;;5.20;;
73276;SDS011;61501;43.316;5.372;2023-05-15T11:49:18;9.57;;;4.90;;
73276;SDS011;61501;43.316;5.372;2023-05-15T11:51:44;5.90;;;3.95;;
73276;SDS011;61501;43.316;5.372;2023-05-15T11:54:12;6.68;;;4.93;;
73276;SDS011;61501;43.316;5.372;2023-05-15T11:56:42;7.38;;;4.88;;
73276;SDS011;61501;43.316;5.372;2023-05-15T11:59:08;8.27;;;5.20;;
73276;SDS011;61501;43.316;5.372;2023-05-15T12:01:42;8.55;;;4.82;;
73276;SDS011;61501;43.316;5.372;2023-05-15T12:04:14;8.63;;;5.55;;
73276;SDS011;61501;43.316;5.372;2023-05-15T12:06:42;8.68;;;5.72;;
73276;SDS011;61501;43.316;5.372;2023-05-15T12:09:18;6.57;;;5.20;;
73276;SDS011;61501;43.316;5.372;2023-05-15T12:11:52;7.32;;;5.25;;
73276;SDS011;61501;43.316;5.372;2023-05-15T12:14:27;10.43;;;5.05;;
73276;SDS011;61501;43.316;5.372;2023-05-15T12:16:58;11.30;;;5.43;;
73276;SDS011;61501;43.316;5.372;2023-05-15T12:19:27;8.63;;;5.10;;
73276;SDS011;61501;43.316;5.372;2023-05-15T12:21:53;10.75;;;5.35;;
73276;SDS011;61501;43.316;5.372;2023-05-15T12:24:19;6.60;;;4.70;;
73276;SDS011;61501;43.316;5.372;2023-05-15T12:26:45;7.25;;;5.63;;
73276;SDS011;61501;43.316;5.372;2023-05-15T12:29:11;5.18;;;4.55;;
73276;SDS011;61501;43.316;5.372;2023-05-15T12:31:37;9.57;;;5.30;;
73276;SDS011;61501;43.316;5.372;2023-05-15T12:34:03;7.82;;;5.13;;
73276;SDS011;61501;43.316;5.372;2023-05-15T12:36:29;6.70;;;4.80;;
73276;SDS011;61501;43.316;5.372;2023-05-15T12:38:55;6.07;;;4.53;;
73276;SDS011;61501;43.316;5.372;2023-05-15T12:41:25;8.32;;;5.20;;
73276;SDS011;61501;43.316;5.372;2023-05-15T12:43:52;7.40;;;4.53;;
73276;SDS011;61501;43.316;5.372;2023-05-15T12:46:20;5.05;;;4.60;;
73276;SDS011;61501;43.316;5.372;2023-05-15T12:48:51;4.80;;;4.30;;
73276;SDS011;61501;43.316;5.372;2023-05-15T12:51:43;6.00;;;4.22;;
73276;SDS011;61501;43.316;5.372;2023-05-15T12:54:18;11.70;;;5.10;;
73276;SDS011;61501;43.316;5.372;2023-05-15T12:56:48;7.72;;;4.70;;
73276;SDS011;61501;43.316;5.372;2023-05-15T12:59:14;5.00;;;4.18;;
73276;SDS011;61501;43.316;5.372;2023-05-15T13:01:40;8.10;;;3.97;;
73276;SDS011;61501;43.316;5.372;2023-05-15T13:04:08;6.15;;;4.30;;
73276;SDS011;61501;43.316;5.372;2023-05-15T13:06:36;5.70;;;5.07;;
73276;SDS011;61501;43.316;5.372;2023-05-15T13:09:03;5.47;;;4.60;;
73276;SDS011;61501;43.316;5.372;2023-05-15T13:11:29;4.82;;;4.28;;
73276;SDS011;61501;43.316;5.372;2023-05-15T13:13:57;6.95;;;4.50;;
73276;SDS011;61501;43.316;5.372;2023-05-15T13:16:24;6.00;;;4.53;;
73276;SDS011;61501;43.316;5.372;2023-05-15T13:18:53;5.95;;;4.10;;
73276;SDS011;61501;43.316;5.372;2023-05-15T13:21:21;7.03;;;4.50;;
73276;SDS011;61501;43.316;5.372;2023-05-15T13:23:47;4.30;;;3.70;;
73276;SDS011;61501;43.316;5.372;2023-05-15T13:26:14;5.93;;;4.15;;
73276;SDS011;61501;43.316;5.372;2023-05-15T13:28:39;6.43;;;4.50;;
73276;SDS011;61501;43.316;5.372;2023-05-15T13:31:05;6.88;;;3.80;;
73276;SDS011;61501;43.316;5.372;2023-05-15T13:33:30;7.82;;;4.35;;
73276;SDS011;61501;43.316;5.372;2023-05-15T13:35:57;8.38;;;4.07;;
73276;SDS011;61501;43.316;5.372;2023-05-15T13:38:23;4.55;;;3.97;;
73276;SDS011;61501;43.316;5.372;2023-05-15T13:40:49;6.57;;;4.40;;
73276;SDS011;61501;43.316;5.372;2023-05-15T13:43:14;5.72;;;4.25;;
73276;SDS011;61501;43.316;5.372;2023-05-15T13:45:40;6.85;;;3.92;;
73276;SDS011;61501;43.316;5.372;2023-05-15T13:48:05;5.35;;;3.92;;
73276;SDS011;61501;43.316;5.372;2023-05-15T13:50:31;7.30;;;4.20;;
73276;SDS011;61501;43.316;5.372;2023-05-15T13:52:57;8.95;;;3.88;;
73276;SDS011;61501;43.316;5.372;2023-05-15T13:55:22;6.13;;;3.90;;
73276;SDS011;61501;43.316;5.372;2023-05-15T13:57:50;6.70;;;3.95;;
73276;SDS011;61501;43.316;5.372;2023-05-15T14:00:16;5.57;;;3.90;;
73276;SDS011;61501;43.316;5.372;2023-05-15T14:02:42;9.63;;;3.78;;
73276;SDS011;61501;43.316;5.372;2023-05-15T14:05:09;5.40;;;3.83;;
73276;SDS011;61501;43.316;5.372;2023-05-15T14:07:35;9.55;;;4.22;;
73276;SDS011;61501;43.316;5.372;2023-05-15T14:10:01;8.07;;;5.00;;
73276;SDS011;61501;43.316;5.372;2023-05-15T14:12:27;7.07;;;4.75;;
73276;SDS011;61501;43.316;5.372;2023-05-15T14:14:53;6.63;;;4.53;;
73276;SDS011;61501;43.316;5.372;2023-05-15T14:17:19;6.90;;;3.50;;
73276;SDS011;61501;43.316;5.372;2023-05-15T14:19:46;5.35;;;3.90;;
73276;SDS011;61501;43.316;5.372;2023-05-15T14:22:11;5.47;;;4.10;;
73276;SDS011;61501;43.316;5.372;2023-05-15T14:24:37;5.32;;;4.13;;
73276;SDS011;61501;43.316;5.372;2023-05-15T14:27:03;8.43;;;3.88;;
73276;SDS011;61501;43.316;5.372;2023-05-15T14:29:28;7.35;;;3.47;;
73276;SDS011;61501;43.316;5.372;2023-05-15T14:31:54;5.55;;;3.78;;
73276;SDS011;61501;43.316;5.372;2023-05-15T14:34:20;7.80;;;3.83;;
73276;SDS011;61501;43.316;5.372;2023-05-15T14:36:46;6.72;;;4.20;;
73276;SDS011;61501;43.316;5.372;2023-05-15T14:39:15;5.10;;;4.13;;
73276;SDS011;61501;43.316;5.372;2023-05-15T14:41:42;8.40;;;3.88;;
73276;SDS011;61501;43.316;5.372;2023-05-15T14:44:08;5.63;;;4.80;;
73276;SDS011;61501;43.316;5.372;2023-05-15T14:46:34;8.18;;;4.25;;
73276;SDS011;61501;43.316;5.372;2023-05-15T14:49:02;9.48;;;3.58;;
73276;SDS011;61501;43.316;5.372;2023-05-15T14:51:29;4.43;;;3.97;;
73276;SDS011;61501;43.316;5.372;2023-05-15T14:53:55;7.05;;;3.60;;
73276;SDS011;61501;43.316;5.372;2023-05-15T14:56:21;7.20;;;4.05;;
73276;SDS011;61501;43.316;5.372;2023-05-15T14:58:47;9.32;;;3.80;;
73276;SDS011;61501;43.316;5.372;2023-05-15T15:01:14;5.70;;;3.80;;
73276;SDS011;61501;43.316;5.372;2023-05-15T15:03:40;4.45;;;3.38;;
73276;SDS011;61501;43.316;5.372;2023-05-15T15:06:08;6.35;;;3.83;;
73276;SDS011;61501;43.316;5.372;2023-05-15T15:08:34;5.32;;;3.45;;
73276;SDS011;61501;43.316;5.372;2023-05-15T15:11:00;5.20;;;3.90;;
73276;SDS011;61501;43.316;5.372;2023-05-15T15:13:26;7.00;;;4.05;;
73276;SDS011;61501;43.316;5.372;2023-05-15T15:15:53;10.10;;;4.13;;
73276;SDS011;61501;43.316;5.372;2023-05-15T15:18:19;6.57;;;3.97;;
73276;SDS011;61501;43.316;5.372;2023-05-15T15:20:46;4.68;;;4.15;;
73276;SDS011;61501;43.316;5.372;2023-05-15T15:23:11;7.60;;;3.40;;